Latest Weather Observations for Noarlunga

IDS60901

Issued at 5:35 pm CST Friday 25 July 2014 (issued every 10 minutes, with the page automatically refreshed every 10 minutes)

About weather observations | Map of Adelaide area stations | Latest observations for Adelaide area | Other Formats
Station Details ID: 023885 Name: NOARLUNGA Lat: -35.16 Lon: 138.51 Height: 55.0 m
Data from the previous 72 hours. | See also: Recent months at Noarlunga
Date/Time
CST
Tmp

°C
App
Tmp
°C
Dew
Point
°C
Rel
Hum
%
Delta-T

°C
Wind Press
QNH
hPa
Press
MSL
hPa
Rain
since
9 am
mm
Dir
 
Spd
km/h
Gust
km/h
Spd
kts
Gust
kts
25/05:30pm 13.2 12.3 10.7 85 1.3 NW 6 9 3 5 - - 1.2
25/05:00pm 13.4 12.5 10.8 84 1.4 NNW 6 11 3 6 - - 1.2
25/04:30pm 14.1 13.0 10.7 80 1.8 NW 7 11 4 6 - - 0.0
25/04:00pm 14.3 13.0 11.1 81 1.7 NNW 9 15 5 8 - - 0.0
25/03:30pm 15.1 13.3 10.7 75 2.3 NW 11 19 6 10 - - 0.0
25/03:00pm 15.1 13.1 10.3 73 2.5 NW 11 17 6 9 - - 0.0
25/02:30pm 15.3 13.7 11.7 79 1.9 NW 11 19 6 10 - - 0.0
25/02:00pm 14.8 12.7 11.2 79 1.9 NW 13 20 7 11 - - 0.0
25/01:30pm 15.2 13.6 11.6 79 1.9 WNW 11 20 6 11 - - 0.0
25/01:00pm 14.2 12.2 11.4 83 1.5 NW 13 19 7 10 - - 0.0
25/12:30pm 14.4 12.1 11.6 83 1.5 NW 15 20 8 11 - - 0.0
25/12:00pm 14.3 12.3 11.5 83 1.5 NW 13 20 7 11 - - 0.0
25/11:30am 13.7 11.6 11.2 85 1.3 NW 13 22 7 12 - - 0.0
25/11:00am 13.7 12.1 11.4 86 1.2 NW 11 15 6 8 - - 0.0
25/10:30am 13.1 11.4 11.2 88 1.0 NW 11 20 6 11 - - 0.0
25/10:00am 12.9 11.2 11.3 90 0.8 WNW 11 15 6 8 - - 0.0
25/09:30am 12.8 11.1 11.2 90 0.8 WNW 11 17 6 9 - - 0.0
25/09:00am 12.7 11.0 11.1 90 0.8 NW 11 19 6 10 - - 10.4
25/08:30am 12.5 10.4 11.1 91 0.7 NW 13 19 7 10 - - 10.4
25/08:00am 12.4 10.3 11.0 91 0.7 WNW 13 20 7 11 - - 10.4
25/07:30am 12.3 10.9 10.9 91 0.7 WNW 9 19 5 10 - - 10.4
25/07:00am 12.2 10.4 10.8 91 0.7 NW 11 20 6 11 - - 9.2
25/06:30am 12.4 10.2 10.8 90 0.8 NW 13 20 7 11 - - 1.4
25/06:00am 12.4 11.0 10.8 90 0.8 WNW 9 15 5 8 - - 1.2
25/05:30am 12.5 10.0 10.9 90 0.8 NW 15 24 8 13 - - 1.2
25/05:00am 12.4 9.8 10.8 90 0.8 NW 15 24 8 13 - - 1.2
25/04:30am 12.4 9.8 10.8 90 0.8 NW 15 20 8 11 - - 1.2
25/04:00am 12.3 9.3 10.7 90 0.8 NW 17 24 9 13 - - 1.0
25/03:30am 12.5 9.5 10.7 89 0.9 NW 17 24 9 13 - - 1.0
25/03:00am 12.6 10.0 10.8 89 0.9 NW 15 24 8 13 - - 0.8
25/02:30am 12.5 9.5 10.7 89 0.9 NW 17 26 9 14 - - 0.8
25/02:00am 12.4 9.0 10.6 89 0.9 NW 19 28 10 15 - - 0.8
25/01:30am 12.5 9.1 10.6 88 1.0 NW 19 30 10 16 - - 0.8
25/01:00am 12.5 9.1 10.6 88 1.0 NW 19 28 10 15 - - 0.8
25/12:30am 12.6 9.2 10.7 88 1.0 NW 19 28 10 15 - - 0.8
25/12:00am 12.5 8.9 10.4 87 1.1 NW 20 32 11 17 - - 0.8
 
Date/Time
CST
Tmp

°C
App
Tmp
°C
Dew
Point
°C
Rel
Hum
%
Delta-T

°C
Wind Press
QNH
hPa
Press
MSL
hPa
Rain
since
9 am
mm
Dir
 
Spd
km/h
Gust
km/h
Spd
kts
Gust
kts
24/11:30pm 12.6 9.2 10.7 88 1.0 NW 19 30 10 16 - - 0.8
24/11:00pm 12.7 9.1 10.6 87 1.1 NW 20 30 11 16 - - 0.8
24/10:30pm 12.6 9.6 10.5 87 1.1 NW 17 26 9 14 - - 0.8
24/10:00pm 12.6 9.5 10.3 86 1.2 NW 17 28 9 15 - - 0.8
24/09:30pm 12.6 9.8 10.1 85 1.3 NW 15 22 8 12 - - 0.8
24/09:00pm 12.8 9.1 10.2 84 1.3 NW 20 30 11 16 - - 0.8
24/08:30pm 12.8 9.3 10.3 85 1.3 NW 19 30 10 16 - - 0.8
24/08:00pm 12.8 9.5 10.9 88 1.0 NW 19 33 10 18 - - 0.8
24/07:30pm 12.9 9.9 10.6 86 1.2 NW 17 28 9 15 - - 0.8
24/07:00pm 13.1 9.5 10.5 84 1.4 NW 20 32 11 17 - - 0.8
24/06:30pm 13.2 10.1 10.4 83 1.5 NNW 17 28 9 15 - - 0.8
24/06:00pm 13.2 10.6 10.6 84 1.4 NNW 15 22 8 12 - - 0.8
24/05:30pm 13.2 10.1 10.4 83 1.5 NW 17 28 9 15 - - 0.8
24/05:00pm 13.4 11.2 10.8 84 1.4 NW 13 20 7 11 - - 0.8
24/04:30pm 13.0 9.4 10.5 85 1.3 NW 20 30 11 16 - - 0.8
24/04:00pm 13.1 10.6 11.2 88 1.0 NW 15 24 8 13 - - 0.8
24/03:30pm 13.1 10.7 11.5 90 0.9 WNW 15 26 8 14 - - 0.6
24/03:00pm 13.2 10.0 11.1 87 1.1 NW 19 30 10 16 - - 0.2
24/02:30pm 13.6 9.3 10.8 83 1.5 NNW 24 39 13 21 - - 0.0
24/02:00pm 13.7 9.6 10.1 79 1.9 NNW 22 33 12 18 - - 0.0
24/01:30pm 14.0 9.9 10.0 77 2.1 NNW 22 35 12 19 - - 0.0
24/01:00pm 14.1 10.0 10.1 77 2.1 NNW 22 32 12 17 - - 0.0
24/12:30pm 14.1 9.8 10.7 80 1.8 NNW 24 39 13 21 - - 0.0
24/12:00pm 13.3 9.7 10.5 83 1.5 NNW 20 35 11 19 - - 0.0
24/11:30am 13.1 9.5 10.6 85 1.3 NNW 20 35 11 19 - - 0.0
24/11:00am 12.4 7.9 10.1 86 1.2 NNW 24 41 13 22 - - 0.0
24/10:30am 12.6 8.2 10.3 86 1.2 NNW 24 37 13 20 - - 0.0
24/10:00am 12.5 8.8 10.2 86 1.2 NW 20 33 11 18 - - 0.0
24/09:30am 12.2 9.0 9.9 86 1.2 NW 17 28 9 15 - - 0.0
24/09:00am 11.9 8.7 10.0 88 1.0 NW 17 26 9 14 - - 15.2
24/08:30am 11.7 8.1 9.9 89 0.9 NNW 19 28 10 15 - - 15.2
24/08:00am 11.4 7.8 9.7 89 0.9 NNW 19 26 10 14 - - 15.2
24/07:30am 11.4 8.2 9.8 90 0.8 N 17 26 9 14 - - 15.2
24/07:00am 11.1 6.8 9.5 90 0.8 N 22 32 12 17 - - 15.2
24/06:30am 11.0 7.1 9.3 89 0.9 N 20 30 11 16 - - 14.8
24/06:00am 11.1 6.7 9.0 87 1.0 N 22 35 12 19 - - 14.6
24/05:30am 10.8 6.4 9.1 89 0.8 N 22 33 12 18 - - 14.6
24/05:00am 10.5 5.7 8.8 89 0.8 NNE 24 35 13 19 - - 14.6
24/04:30am 10.3 5.4 8.6 89 0.8 NNE 24 39 13 21 - - 14.4
24/04:00am 10.2 5.3 8.3 88 0.9 NNE 24 37 13 20 - - 14.0
24/03:30am 10.1 6.1 8.2 88 0.9 NE 19 33 10 18 - - 13.8
24/03:00am 10.3 6.5 7.7 84 1.3 NNE 17 30 9 16 - - 12.6
24/02:30am 11.3 7.8 7.0 75 2.1 NNE 15 28 8 15 - - 11.8
24/02:00am 10.1 7.7 7.2 82 1.4 ENE 9 19 5 10 - - 11.8
24/01:30am 10.5 7.3 7.0 79 1.7 E 13 17 7 9 - - 11.4
24/01:00am 10.5 7.3 7.0 79 1.7 E 13 20 7 11 - - 11.0
24/12:30am 10.7 6.8 7.0 78 1.8 E 17 24 9 13 - - 10.6
24/12:00am 11.0 6.9 6.4 73 2.2 E 17 24 9 13 - - 10.4
 
Date/Time
CST
Tmp

°C
App
Tmp
°C
Dew
Point
°C
Rel
Hum
%
Delta-T

°C
Wind Press
QNH
hPa
Press
MSL
hPa
Rain
since
9 am
mm
Dir
 
Spd
km/h
Gust
km/h
Spd
kts
Gust
kts
23/11:30pm 11.4 6.2 5.7 68 2.6 ENE 22 35 12 19 - - 10.4
23/11:00pm 11.1 5.9 5.6 69 2.5 ENE 22 39 12 21 - - 10.4
23/10:30pm 10.9 6.2 5.9 71 2.3 ENE 20 33 11 18 - - 10.4
23/10:00pm 11.5 7.3 5.6 67 2.7 ENE 17 24 9 13 - - 10.4
23/09:30pm 11.3 7.2 6.2 71 2.4 ENE 17 37 9 20 - - 10.4
23/09:00pm 11.0 6.5 6.9 76 2.0 NE 20 35 11 19 - - 10.4
23/08:30pm 10.9 7.0 7.0 77 1.9 NE 17 28 9 15 - - 9.8
23/08:00pm 10.6 6.4 7.3 80 1.6 NE 19 32 10 17 - - 9.6
23/07:30pm 10.4 6.2 7.3 81 1.5 ENE 19 28 10 15 - - 8.6
23/07:00pm 10.5 6.0 7.0 79 1.7 ENE 20 32 11 17 - - 7.2
23/06:30pm 10.4 6.9 7.1 80 1.6 ENE 15 22 8 12 - - 5.4
23/06:00pm 11.4 6.9 6.3 71 2.4 NNE 19 32 10 17 - - 3.0
23/05:30pm 12.5 9.1 5.9 64 3.1 E 13 19 7 10 - - 1.0
23/05:00pm 14.3 10.7 5.1 54 4.3 NE 13 22 7 12 - - 1.0
23/04:30pm 13.5 10.1 6.1 61 3.5 E 13 22 7 12 - - 1.0
23/04:00pm 13.9 10.4 7.0 63 3.4 ENE 15 24 8 13 - - 1.0
23/03:30pm 14.5 10.2 7.1 61 3.6 ENE 19 32 10 17 - - 1.0
23/03:00pm 13.4 10.4 7.6 68 2.9 ENE 13 22 7 12 - - 1.0
23/02:30pm 12.5 10.9 8.8 78 1.9 N 7 13 4 7 - - 1.0
23/02:00pm 12.2 8.7 8.9 80 1.7 E 17 26 9 14 - - 1.0
23/01:30pm 11.8 8.7 7.3 74 2.2 NNE 13 20 7 11 - - 0.4
23/01:00pm 12.9 9.0 6.9 67 2.9 N 17 28 9 15 - - 0.0
23/12:30pm 13.9 8.2 5.0 55 4.2 N 24 32 13 17 - - 0.0
23/12:00pm 15.0 9.5 3.8 47 5.1 N 22 33 12 18 - - 0.0
23/11:30am 15.9 9.3 2.3 40 6.1 N 26 37 14 20 - - 0.0
23/11:00am 15.3 9.7 1.1 38 6.2 N 20 30 11 16 - - 0.0
23/10:30am 15.6 9.1 0.6 36 6.5 N 24 37 13 20 - - 0.0
23/10:00am 15.3 9.9 1.1 38 6.2 NNE 19 30 10 16 - - 0.0
23/09:30am 15.1 11.7 1.6 40 5.9 NNE 9 17 5 9 - - 0.0
23/09:00am 14.0 10.6 1.6 43 5.4 E 9 15 5 8 - - 0.0
23/08:30am 15.6 12.0 0.6 36 6.5 NE 9 17 5 9 - - 0.0
23/08:00am 15.1 10.6 -0.2 35 6.5 NE 13 22 7 12 - - 0.0
23/07:30am 15.1 10.6 -0.6 34 6.6 NE 13 22 7 12 - - 0.0
23/07:00am 15.1 10.6 -0.2 35 6.5 NNE 13 22 7 12 - - 0.0
23/06:30am 13.6 10.2 1.6 44 5.2 NE 9 17 5 9 - - 0.0
23/06:00am 12.1 8.7 2.0 50 4.3 ENE 9 11 5 6 - - 0.0
23/05:30am 11.4 7.7 2.4 54 3.9 E 11 13 6 7 - - 0.0
23/05:00am 11.3 7.2 2.3 54 3.9 E 13 15 7 8 - - 0.0
23/04:30am 11.0 8.0 2.3 55 3.7 E 7 9 4 5 - - 0.0
23/04:00am 13.5 10.6 1.5 44 5.2 NE 6 11 3 6 - - 0.0
23/03:30am 13.7 9.7 0.7 41 5.5 NE 11 17 6 9 - - 0.0
23/03:00am 14.1 9.8 0.7 40 5.7 NE 13 19 7 10 - - 0.0
23/02:30am 13.1 9.3 1.5 45 5.0 NE 11 17 6 9 - - 0.0
23/02:00am 12.0 9.0 1.9 50 4.3 ENE 7 9 4 5 - - 0.0
23/01:30am 11.8 8.8 2.0 51 4.2 ENE 7 11 4 6 - - 0.0
23/01:00am 12.0 9.0 1.9 50 4.3 ENE 7 11 4 6 - - 0.0
23/12:30am 12.5 9.5 1.8 48 4.6 ENE 7 13 4 7 - - 0.0
23/12:00am 12.7 8.6 2.0 48 4.6 ENE 13 19 7 10 - - 0.0
 
Date/Time
CST
Tmp

°C
App
Tmp
°C
Dew
Point
°C
Rel
Hum
%
Delta-T

°C
Wind Press
QNH
hPa
Press
MSL
hPa
Rain
since
9 am
mm
Dir
 
Spd
km/h
Gust
km/h
Spd
kts
Gust
kts
22/11:30pm 12.7 8.6 2.0 48 4.6 ENE 13 19 7 10 - - 0.0
22/11:00pm 12.6 8.4 1.9 48 4.6 ENE 13 19 7 10 - - 0.0
22/10:30pm 12.6 8.4 1.9 48 4.6 ENE 13 19 7 10 - - 0.0
22/10:00pm 12.3 8.6 2.5 51 4.3 E 11 15 6 8 - - 0.0
22/09:30pm 11.5 7.9 2.8 55 3.8 E 11 13 6 7 - - 0.0
22/09:00pm 12.8 9.1 2.6 50 4.5 ENE 11 15 6 8 - - 0.0
22/08:30pm 12.6 9.1 3.6 54 4.0 E 11 15 6 8 - - 0.0
22/08:00pm 11.9 8.9 4.2 59 3.5 E 9 11 5 6 - - 0.0
22/07:30pm 12.0 9.3 3.8 57 3.7 E 7 9 4 5 - - 0.0
22/07:00pm 12.5 10.1 4.2 57 3.8 ENE 6 7 3 4 - - 0.0
22/06:30pm 12.6 10.3 5.8 63 3.2 ENE 7 9 4 5 - - 0.0
22/06:00pm 12.9 11.4 5.1 59 3.6 N 2 4 1 2 - - 0.0

Latest Capital City Observations: Canberra | Sydney | Melbourne | Brisbane | Adelaide | Perth | Hobart | Darwin

Other Formats:

Comma delimited format used in spreadsheet applications
http://www.bom.gov.au/fwo/IDS60901/IDS60901.94808.axf

JavaScript Object Notation format (JSON) in row-major order
http://www.bom.gov.au/fwo/IDS60901/IDS60901.94808.json